M I D A S
Marine Information and Data Acquisition System
Tripno 1870 of the Zeeleeuw from 2010-04-28 06:30:26 to 2010-04-28 15:18:35
Back to CruiseResearch ActivitiesStationsMapUnderway DataData graphs

EquipmentUnitsComments
TimeDGPSUTC
LatitudeDGPSDM.mWGS84
LongitudeDGPSDM.mWGS84
SpeedMeteo Stationm/sRelative wind speed
DirectionMeteo StationdegRelative wind direction
TemperatureMeteo Stationdeg CelciusAir temperature
PressureMeteo StationPaAtmospheric pressure
HumidityMeteo Station%Relative humidity
Missing or incorrect values are displayed as -999
Metereological data collected by the RV Zeeleeuw from 2010-04-28 06:55:22 to 2010-04-28 15:37:59
Time Latitude Longitude Speed Direction Temperature Pressure Humidity
2010-04-28 06:56 51°13.68 2°55.881 1.7 2 14.3 102380 35
2010-04-28 06:57 51°13.692 2°55.785 1 23 14.3 102370 35
2010-04-28 06:58 51°13.694 2°55.756 1.4 37 14.4 102370 36
2010-04-28 06:59 51°13.705 2°55.747 1.2 58 14.5 102370 36
2010-04-28 07:00 51°13.758 2°55.698 -999 306 14.6 102370 37
2010-04-28 07:01 51°13.866 2°55.616 -999 306 14.7 102370 37
2010-04-28 07:02 51°14.006 2°55.517 -999 306 14.8 102370 37
2010-04-28 07:03 51°14.164 2°55.394 1.3 308 14.9 102360 34
2010-04-28 07:04 51°14.314 2°55.251 0.4 332 14.9 102360 35
2010-04-28 07:05 51°14.466 2°55.099 2.4 309 15 102360 38
2010-04-28 07:06 51°14.615 2°54.917 0.8 301 15 102350 37
2010-04-28 07:07 51°14.787 2°54.735 1.7 308 15.1 102350 35
2010-04-28 07:08 51°14.966 2°54.552 2.1 308 15.1 102350 35
2010-04-28 07:09 51°15.154 2°54.426 0.4 330 15.2 102350 35
2010-04-28 07:10 51°15.338 2°54.464 3 352 15.1 102360 38
2010-04-28 07:11 51°15.485 2°54.641 5.3 356 14.8 102350 35
2010-04-28 07:12 51°15.584 2°54.893 5.4 353 14.5 102350 36
2010-04-28 07:13 51°15.692 2°55.134 5.4 357 14.4 102350 39
2010-04-28 07:14 51°15.789 2°55.393 4.9 352 14.3 102350 36
2010-04-28 07:15 51°15.882 2°55.655 5.7 354 14.3 102360 37
2010-04-28 07:16 51°15.979 2°55.918 5 354 14.2 102360 36
2010-04-28 07:17 51°16.074 2°56.19 5 354 14.3 102360 36
2010-04-28 07:18 51°16.164 2°56.471 5.1 349 14.3 102360 36
2010-04-28 07:19 51°16.229 2°56.771 6 348 14.3 102360 37
2010-04-28 07:20 51°16.301 2°57.043 5.6 353 14.4 102360 36
2010-04-28 07:21 51°16.371 2°57.307 5 356 14.4 102360 36
2010-04-28 07:22 51°16.502 2°57.524 5 358 14.6 102350 36
2010-04-28 07:23 51°16.638 2°57.749 4.1 356 14.6 102350 35
2010-04-28 07:24 51°16.789 2°58.002 4.6 351 14.6 102350 39
2010-04-28 07:25 51°16.95 2°58.271 5.3 354 14.5 102350 37
2010-04-28 07:27 51°17.123 2°58.621 4.7 358 14.4 102340 38
2010-04-28 07:28 51°17.318 2°58.841 3.7 359 14.4 102350 37
2010-04-28 07:29 51°17.396 2°59.017 5.4 355 14.4 102350 37
2010-04-28 07:30 51°17.342 2°59.096 5.6 345 14.3 102340 37
2010-04-28 07:31 51°17.283 2°59.12 5.1 335 14.3 102340 38
2010-04-28 07:32 51°17.222 2°59.109 5 326 14.5 102340 38
2010-04-28 07:33 51°17.161 2°59.065 4.7 316 14.6 102340 36
2010-04-28 07:34 51°17.113 2°58.999 4.7 34 14.7 102340 36
2010-04-28 07:35 51°17.072 2°58.92 4.6 31 14.7 102340 37
2010-04-28 07:36 51°17.032 2°58.842 4.4 35 14.8 102340 37
2010-04-28 07:37 51°16.994 2°58.767 4.6 34 14.8 102340 36
2010-04-28 07:38 51°16.954 2°58.691 4 34 14.9 102340 37
2010-04-28 07:39 51°16.916 2°58.618 4.3 33 15 102340 36
2010-04-28 07:40 51°16.876 2°58.544 4 35 15.1 102340 36
2010-04-28 07:41 51°16.836 2°58.47 4.4 38 15.1 102340 37
2010-04-28 07:42 51°16.796 2°58.393 4 230 15.2 102340 36
2010-04-28 07:43 51°16.756 2°58.317 3.7 40 15.2 102340 37
2010-04-28 07:44 51°16.715 2°58.242 4.4 38 15.2 102340 38
2010-04-28 07:45 51°16.675 2°58.167 5 33 15.2 102340 38
2010-04-28 07:46 51°16.635 2°58.092 4.4 232 15.2 102340 37
2010-04-28 07:47 51°16.6 2°58.009 4 239 15.4 102340 35
2010-04-28 07:48 51°16.569 2°57.926 4.7 240 15.5 102340 37
2010-04-28 07:49 51°16.543 2°57.837 3.6 248 15.6 102340 37
2010-04-28 07:50 51°16.527 2°57.749 3 249 15.7 102340 37
2010-04-28 07:51 51°16.513 2°57.662 3 247 15.8 102350 37
2010-04-28 07:52 51°16.498 2°57.549 3.2 244 15.9 102340 36
2010-04-28 07:53 51°16.515 2°57.388 2.9 24 15.9 102350 37
2010-04-28 07:54 51°16.58 2°57.226 2.3 254 15.9 102350 36
2010-04-28 07:55 51°16.636 2°57.159 -999 25 15.9 102350 37
2010-04-28 07:56 51°16.674 2°57.136 0.1 21 15.8 102350 37
2010-04-28 07:57 51°16.722 2°57.132 -999 24 15.8 102360 37
2010-04-28 07:58 51°16.785 2°57.221 3 358 15.9 102360 37
2010-04-28 07:59 51°16.751 2°57.367 3.9 348 15.7 102350 37
2010-04-28 08:00 51°16.687 2°57.401 3.5 346 15.5 102350 36
2010-04-28 08:01 51°16.636 2°57.395 3.1 342 15.5 102360 37
2010-04-28 08:02 51°16.591 2°57.374 3.9 338 15.7 102360 38
2010-04-28 08:03 51°16.537 2°57.276 5.8 318 15.7 102350 38
2010-04-28 08:04 51°16.458 2°56.994 8.3 318 15.5 102350 36
2010-04-28 08:05 51°16.374 2°56.642 7.4 321 15.6 102350 37
2010-04-28 08:06 51°16.293 2°56.276 7.6 320 15.8 102350 35
2010-04-28 08:07 51°16.222 2°55.901 7.8 319 15.6 102350 37
2010-04-28 08:08 51°16.164 2°55.517 7.6 319 15.7 102350 38
2010-04-28 08:09 51°16.122 2°55.126 7.7 322 15.4 102350 38
2010-04-28 08:10 51°16.082 2°54.732 7.7 322 15 102350 38
2010-04-28 08:11 51°16.047 2°54.337 8.7 319 14.8 102350 39
2010-04-28 08:12 51°16.009 2°53.94 8.3 319 14.8 102350 38
2010-04-28 08:13 51°15.968 2°53.543 7.8 319 14.9 102350 39
2010-04-28 08:14 51°15.909 2°53.154 8 322 14.9 102360 39
2010-04-28 08:15 51°15.847 2°52.768 8.7 320 14.9 102360 37
2010-04-28 08:16 51°15.785 2°52.382 8.5 321 14.7 102360 39
2010-04-28 08:17 51°15.723 2°51.997 7.3 322 14.6 102360 39
2010-04-28 08:18 51°15.663 2°51.612 8.2 322 14.6 102360 38
2010-04-28 08:19 51°15.543 2°51.277 7.9 325 14.5 102360 39
2010-04-28 08:20 51°15.411 2°50.938 8.1 325 14.7 102360 39
2010-04-28 08:21 51°15.35 2°50.558 8 318 14.6 102360 38
2010-04-28 08:22 51°15.338 2°50.167 7.3 319 14.6 102370 38
2010-04-28 08:23 51°15.396 2°49.797 6.1 316 14.5 102370 37
2010-04-28 08:24 51°15.496 2°49.452 6.4 321 14.6 102370 39
2010-04-28 08:25 51°15.536 2°49.082 6.9 324 14.4 102370 40
2010-04-28 08:26 51°15.519 2°48.7 7.3 323 14.2 102370 39
2010-04-28 08:27 51°15.502 2°48.317 7.3 324 14 102370 40
2010-04-28 08:28 51°15.387 2°48.056 6.6 336 13.8 102370 40
2010-04-28 08:29 51°15.202 2°47.946 6.9 324 13.8 102370 39
2010-04-28 08:30 51°15.19 2°47.597 6.6 322 13.7 102380 39
2010-04-28 08:31 51°15.182 2°47.229 7.3 325 13.8 102380 38
2010-04-28 08:32 51°15.165 2°46.854 7.3 325 13.7 102380 39
2010-04-28 08:33 51°15.112 2°46.481 7.5 328 13.7 102370 39
2010-04-28 08:34 51°15.054 2°46.106 7.5 327 13.6 102370 40
2010-04-28 08:35 51°14.999 2°45.729 7.9 326 13.5 102370 39
2010-04-28 08:36 51°14.931 2°45.357 7.2 326 13.4 102370 41
2010-04-28 08:37 51°14.857 2°44.985 7 324 13.3 102370 39
2010-04-28 08:38 51°14.785 2°44.612 7.8 325 13.3 102370 40
2010-04-28 08:39 51°14.709 2°44.241 7.1 321 13.2 102360 40
2010-04-28 08:40 51°14.654 2°43.86 7.9 321 13.3 102360 40
2010-04-28 08:41 51°14.592 2°43.479 6.9 323 13.3 102360 41
2010-04-28 08:42 51°14.542 2°43.092 7.7 322 13.2 102360 41
2010-04-28 08:43 51°14.493 2°42.704 7.7 321 13.3 102360 40
2010-04-28 08:44 51°14.444 2°42.317 7.6 321 13.6 102360 40
2010-04-28 08:45 51°14.396 2°41.938 6.6 323 13.7 102350 38
2010-04-28 08:46 51°14.346 2°41.564 7.3 322 13.5 102350 39
2010-04-28 08:47 51°14.304 2°41.19 7.5 321 13.5 102350 38
2010-04-28 08:48 51°14.266 2°40.816 7.2 319 13.4 102350 38
2010-04-28 08:49 51°14.249 2°40.442 6.5 321 13.4 102350 40
2010-04-28 08:50 51°14.233 2°40.068 6.4 322 13.4 102340 39
2010-04-28 08:51 51°14.217 2°39.694 6.3 322 13.4 102350 39
2010-04-28 08:52 51°14.2 2°39.32 6.6 322 13.3 102340 39
2010-04-28 08:53 51°14.179 2°38.944 6.5 321 13.3 102340 41
2010-04-28 08:54 51°14.159 2°38.564 7.2 322 13.3 102340 39
2010-04-28 08:55 51°14.141 2°38.181 6.4 320 13.3 102340 40
2010-04-28 08:56 51°14.144 2°37.796 6.3 320 13.3 102340 40
2010-04-28 08:57 51°14.147 2°37.41 6.8 321 13.3 102330 39
2010-04-28 08:58 51°14.154 2°37.026 6.3 319 13.3 102330 40
2010-04-28 08:59 51°14.183 2°36.652 6.1 318 13.2 102330 41
2010-04-28 09:00 51°14.221 2°36.285 5.4 320 13.3 102330 41
2010-04-28 09:01 51°14.288 2°35.933 5.2 322 13.2 102340 39
2010-04-28 09:02 51°14.417 2°35.634 4.1 326 13.1 102330 39
2010-04-28 09:03 51°14.598 2°35.418 4.6 326 13.1 102330 38
2010-04-28 09:04 51°14.788 2°35.222 4.3 323 13 102330 39
2010-04-28 09:05 51°14.992 2°35.079 3.8 328 13 102330 40
2010-04-28 09:06 51°15.207 2°35.033 4.1 331 12.9 102330 39
2010-04-28 09:07 51°15.421 2°35.003 4.1 330 12.8 102320 42
2010-04-28 09:08 51°15.634 2°34.964 4.2 329 12.7 102330 42
2010-04-28 09:09 51°15.844 2°34.919 3.4 328 12.6 102330 40
2010-04-28 09:10 51°15.976 2°34.887 0.2 329 12.6 102330 41
2010-04-28 09:11 51°16.051 2°34.88 -999 339 12.7 102330 40
2010-04-28 09:12 51°16.097 2°34.899 -999 355 12.8 102330 40
2010-04-28 09:13 51°16.13 2°34.975 1.7 349 12.7 102330 38
2010-04-28 09:14 51°16.09 2°35.082 3.5 343 12.6 102330 39
2010-04-28 09:15 51°16.003 2°35.107 2.6 336 12.7 102330 42
2010-04-28 09:16 51°15.935 2°35.073 2.3 331 12.7 102330 39
2010-04-28 09:17 51°15.882 2°35.02 2.2 326 12.7 102340 40
2010-04-28 09:18 51°15.841 2°34.956 1.8 322 12.8 102340 40
2010-04-28 09:19 51°15.808 2°34.887 1.7 319 12.8 102340 39
2010-04-28 09:20 51°15.775 2°34.814 1.6 323 12.9 102340 39
2010-04-28 09:21 51°15.74 2°34.738 1.8 324 12.9 102340 42
2010-04-28 09:22 51°15.704 2°34.66 1.8 324 12.9 102340 39
2010-04-28 09:23 51°15.669 2°34.581 1.7 322 12.9 102340 40
2010-04-28 09:24 51°15.634 2°34.502 1.9 323 12.9 102340 39
2010-04-28 09:25 51°15.599 2°34.423 2 321 12.9 102340 40
2010-04-28 09:26 51°15.564 2°34.344 2.2 321 12.9 102340 42
2010-04-28 09:27 51°15.529 2°34.267 2 321 13 102340 38
2010-04-28 09:28 51°15.494 2°34.19 1.9 321 13 102340 39
2010-04-28 09:29 51°15.459 2°34.114 2.2 321 13.2 102340 42
2010-04-28 09:30 51°15.423 2°34.038 1.9 321 13.2 102340 39
2010-04-28 09:31 51°15.387 2°33.962 2.3 321 13.3 102340 39
2010-04-28 09:32 51°15.352 2°33.887 2.1 320 13.3 102330 38
2010-04-28 09:33 51°15.317 2°33.813 1.8 320 13.5 102330 39
2010-04-28 09:34 51°15.282 2°33.74 2.1 317 13.6 102330 38
2010-04-28 09:35 51°15.248 2°33.666 2.4 33 13.7 102320 40
2010-04-28 09:36 51°15.22 2°33.588 2.2 28 13.8 102320 38
2010-04-28 09:37 51°15.207 2°33.509 2 246 13.9 102320 38
2010-04-28 09:38 51°15.204 2°33.433 1.6 249 14 102320 39
2010-04-28 09:39 51°15.206 2°33.357 1.5 248 14.1 102310 41
2010-04-28 09:40 51°15.219 2°33.279 -999 245 14.2 102320 39
2010-04-28 09:41 51°15.258 2°33.242 -999 247 14.3 102320 39
2010-04-28 09:42 51°15.306 2°33.263 -999 8 14.3 102320 39
2010-04-28 09:43 51°15.338 2°33.311 -999 359 14.2 102310 37
2010-04-28 09:44 51°15.356 2°33.363 -999 359 14 102320 39
2010-04-28 09:45 51°15.354 2°33.453 2.6 335 13.7 102310 40
2010-04-28 09:46 51°15.278 2°33.473 3.4 321 13.6 102310 41
2010-04-28 09:47 51°15.157 2°33.32 4.8 324 13.6 102310 41
2010-04-28 09:48 51°15.026 2°33.123 5.2 324 13.5 102310 38
2010-04-28 09:49 51°14.899 2°32.924 5 324 13.4 102310 39
2010-04-28 09:50 51°14.751 2°32.734 6.1 325 13.4 102300 39
2010-04-28 09:51 51°14.587 2°32.566 6 325 13.5 102300 39
2010-04-28 09:52 51°14.417 2°32.389 6.2 324 13.5 102300 41
2010-04-28 09:53 51°14.253 2°32.216 6.6 324 13.5 102300 39
2010-04-28 09:54 51°14.084 2°32.04 6.3 324 13.6 102300 40
2010-04-28 09:55 51°13.923 2°31.865 6.1 325 13.6 102290 39
2010-04-28 09:56 51°13.829 2°31.695 2.1 39 13.7 102300 41
2010-04-28 09:57 51°13.828 2°31.596 -999 240 13.9 102300 40
2010-04-28 09:58 51°13.843 2°31.542 -999 253 14 102300 40
2010-04-28 09:59 51°13.859 2°31.49 -999 250 14.3 102300 40
2010-04-28 10:00 51°13.899 2°31.436 -999 355 14.5 102290 40
2010-04-28 10:01 51°13.961 2°31.439 -999 1 14.3 102300 39
2010-04-28 10:02 51°14.025 2°31.476 -999 357 14 102290 39
2010-04-28 10:03 51°14.09 2°31.536 1.6 355 13.7 102300 38
2010-04-28 10:04 51°14.151 2°31.599 1.2 355 13.5 102300 39
2010-04-28 10:05 51°14.211 2°31.658 1.5 354 13.4 102300 41
2010-04-28 10:06 51°14.27 2°31.718 1.6 354 13.4 102290 41
2010-04-28 10:07 51°14.328 2°31.788 1.4 356 13.3 102300 39
2010-04-28 10:08 51°14.382 2°31.856 0.8 358 13.3 102290 42
2010-04-28 10:09 51°14.434 2°31.92 1.5 360 13.3 102290 38
2010-04-28 10:10 51°14.487 2°31.981 1.6 358 13.2 102290 41
2010-04-28 10:11 51°14.537 2°32.041 1.8 354 13.2 102290 38
2010-04-28 10:12 51°14.587 2°32.1 1.6 359 13.1 102290 41
2010-04-28 10:13 51°14.637 2°32.151 1.4 1 13.1 102290 39
2010-04-28 10:14 51°14.691 2°32.197 1.5 -999 13.1 102280 40
2010-04-28 10:15 51°14.748 2°32.243 1.7 356 13.1 102280 41
2010-04-28 10:16 51°14.806 2°32.29 1.4 360 13.1 102280 43
2010-04-28 10:17 51°14.864 2°32.337 1.5 358 13 102280 40
2010-04-28 10:18 51°14.922 2°32.385 1.9 356 13 102280 42
2010-04-28 10:19 51°14.979 2°32.444 2.2 357 13 102280 39
2010-04-28 10:20 51°15.035 2°32.504 1.7 358 12.9 102280 43
2010-04-28 10:21 51°15.092 2°32.565 1.8 358 12.8 102270 40
2010-04-28 10:22 51°15.146 2°32.635 -999 353 12.8 102280 42
2010-04-28 10:23 51°15.176 2°32.751 -999 342 12.9 102270 41
2010-04-28 10:24 51°15.175 2°32.881 1.4 332 13.2 102270 42
2010-04-28 10:25 51°15.146 2°32.998 2.1 325 13.4 102270 43
2010-04-28 10:26 51°15.095 2°33.078 2 38 13.6 102270 40
2010-04-28 10:27 51°15.04 2°33.109 1.4 34 13.8 102270 41
2010-04-28 10:28 51°14.999 2°33.107 -999 240 13.9 102270 42
2010-04-28 10:29 51°14.976 2°33.102 -999 246 14.1 102270 39
2010-04-28 10:30 51°14.966 2°33.075 -999 244 14.2 102270 40
2010-04-28 10:31 51°15.011 2°33.042 1.4 349 14.4 102260 39
2010-04-28 10:32 51°15.142 2°33.034 4 341 14.1 102260 39
2010-04-28 10:33 51°15.335 2°33.041 4.5 341 13.9 102250 41
2010-04-28 10:34 51°15.535 2°33.053 5.1 343 13.8 102250 38
2010-04-28 10:35 51°15.733 2°33.067 4.7 344 13.7 102250 38
2010-04-28 10:36 51°15.931 2°33.082 4.6 345 13.5 102250 38
2010-04-28 10:37 51°16.05 2°32.901 3 329 13.3 102250 40
2010-04-28 10:38 51°16.054 2°32.601 3.9 327 13.2 102250 38
2010-04-28 10:39 51°16.056 2°32.275 4.4 327 13.4 102240 38
2010-04-28 10:40 51°16.062 2°31.942 4.5 329 13.6 102240 38
2010-04-28 10:41 51°16.071 2°31.608 4.3 330 13.8 102240 40
2010-04-28 10:42 51°16.044 2°31.282 4.2 326 13.8 102240 39
2010-04-28 10:43 51°15.983 2°30.968 4.1 328 13.8 102240 41
2010-04-28 10:44 51°15.88 2°30.685 5.3 324 13.7 102240 40
2010-04-28 10:45 51°15.77 2°30.406 5.2 325 13.7 102230 38
2010-04-28 10:46 51°15.638 2°30.157 5.4 324 13.8 102230 38
2010-04-28 10:47 51°15.498 2°29.918 5.4 324 13.9 102230 38
2010-04-28 10:48 51°15.361 2°29.675 4.7 324 14 102230 40
2010-04-28 10:49 51°15.224 2°29.43 5.7 323 14 102230 39
2010-04-28 10:50 51°15.088 2°29.185 5.4 323 14.1 102220 38
2010-04-28 10:51 51°14.949 2°28.936 4.8 324 14.3 102220 40
2010-04-28 10:52 51°14.817 2°28.694 4.5 326 14.3 102220 39
2010-04-28 10:53 51°14.681 2°28.45 5.1 325 14.2 102220 38
2010-04-28 10:54 51°14.545 2°28.206 4.9 324 14.1 102220 39
2010-04-28 10:55 51°14.408 2°27.958 4.5 324 14.1 102220 39
2010-04-28 10:56 51°14.275 2°27.716 4.4 323 14.1 102220 42
2010-04-28 10:57 51°14.135 2°27.468 4 323 13.9 102220 39
2010-04-28 10:58 51°14.003 2°27.23 3.9 322 13.9 102210 39
2010-04-28 10:59 51°13.862 2°26.976 4.1 322 13.9 102210 42
2010-04-28 11:00 51°13.74 2°26.712 3.4 326 13.8 102210 41
2010-04-28 11:01 51°13.729 2°26.385 4 333 13.8 102210 42
2010-04-28 11:02 51°13.829 2°26.075 4.4 337 13.8 102210 41
2010-04-28 11:03 51°14.043 2°25.923 5.4 340 13.9 102200 40
2010-04-28 11:04 51°14.277 2°25.831 5.6 342 14 102200 39
2010-04-28 11:05 51°14.501 2°25.75 5.6 343 14.1 102200 39
2010-04-28 11:06 51°14.728 2°25.679 5.4 343 14 102200 41
2010-04-28 11:07 51°14.942 2°25.623 5.2 344 13.7 102200 40
2010-04-28 11:08 51°15.172 2°25.567 5.8 345 13.5 102190 39
2010-04-28 11:09 51°15.393 2°25.518 5.8 344 13.2 102190 41
2010-04-28 11:10 51°15.62 2°25.469 5.1 344 13.1 102190 40
2010-04-28 11:11 51°15.853 2°25.413 5.4 344 13 102190 42
2010-04-28 11:12 51°16.083 2°25.363 5.4 344 13.1 102190 39
2010-04-28 11:13 51°16.332 2°25.362 6.7 344 13.1 102180 40
2010-04-28 11:14 51°16.575 2°25.497 7.5 341 13.1 102180 42
2010-04-28 11:15 51°16.812 2°25.709 7.1 340 13.2 102170 39
2010-04-28 11:16 51°17.037 2°25.917 7.8 341 13.2 102170 40
2010-04-28 11:17 51°17.276 2°26.142 8.5 341 13.1 102170 38
2010-04-28 11:18 51°17.498 2°26.353 7.3 342 13.1 102180 41
2010-04-28 11:19 51°17.733 2°26.578 7.4 342 13.1 102170 39
2010-04-28 11:20 51°17.96 2°26.796 7.2 342 13 102170 39
2010-04-28 11:21 51°18.183 2°27.01 7.1 342 13 102170 42
2010-04-28 11:22 51°18.41 2°27.229 7.2 342 13 102160 39
2010-04-28 11:23 51°18.635 2°27.442 7.2 342 13.1 102160 38
2010-04-28 11:24 51°18.869 2°27.663 7 341 13.1 102160 40
2010-04-28 11:25 51°19.097 2°27.874 7.5 342 13.1 102160 38
2010-04-28 11:26 51°19.332 2°28.092 7.6 342 13.1 102160 39
2010-04-28 11:27 51°19.56 2°28.301 7.8 343 13.1 102160 40
2010-04-28 11:28 51°19.801 2°28.519 7.3 342 13.1 102160 40
2010-04-28 11:29 51°20.03 2°28.728 7.2 343 13.1 102160 40
2010-04-28 11:30 51°20.263 2°28.94 7.3 342 13 102160 40
2010-04-28 11:31 51°20.497 2°29.15 7.4 343 13 102160 41
2010-04-28 11:32 51°20.731 2°29.364 7.6 343 13.1 102150 39
2010-04-28 11:33 51°20.97 2°29.582 7.4 342 13.1 102150 38
2010-04-28 11:34 51°21.196 2°29.786 7.6 342 13 102150 41
2010-04-28 11:35 51°21.442 2°29.974 7.7 344 12.9 102160 40
2010-04-28 11:36 51°21.696 2°30.101 7 344 12.8 102160 41
2010-04-28 11:37 51°21.955 2°30.183 6.9 346 12.7 102160 38
2010-04-28 11:38 51°22.26 2°30.218 5.8 348 12.6 102150 37
2010-04-28 11:39 51°22.59 2°30.137 5.4 347 12.5 102150 41
2010-04-28 11:40 51°22.837 2°30.07 5.6 347 12.5 102150 39
2010-04-28 11:41 51°23.085 2°30.009 5.9 346 12.6 102150 41
2010-04-28 11:42 51°23.331 2°29.949 5.3 347 12.6 102150 38
2010-04-28 11:43 51°23.579 2°29.89 5.9 347 12.6 102150 37
2010-04-28 11:44 51°23.828 2°29.831 5.1 348 12.8 102150 40
2010-04-28 11:45 51°24.074 2°29.77 5.4 348 12.8 102140 37
2010-04-28 11:46 51°24.316 2°29.715 5.1 350 12.8 102140 38
2010-04-28 11:47 51°24.568 2°29.668 5.1 348 12.8 102140 40
2010-04-28 11:48 51°24.821 2°29.669 5.8 349 12.8 102140 38
2010-04-28 11:49 51°25.076 2°29.678 5.8 350 12.7 102130 40
2010-04-28 11:50 51°25.319 2°29.751 6.4 277 12.7 102130 38
2010-04-28 11:51 51°25.565 2°29.874 7.4 348 12.7 102130 38
2010-04-28 11:52 51°25.782 2°30.078 7.6 345 12.6 102130 40
2010-04-28 11:53 51°26.003 2°30.303 7.3 279 12.5 102130 38
2010-04-28 11:54 51°26.218 2°30.513 7.7 283 12.6 102130 40
2010-04-28 11:55 51°26.436 2°30.724 7 279 12.6 102130 38
2010-04-28 11:56 51°26.659 2°30.936 6.8 279 12.6 102130 40
2010-04-28 11:57 51°26.861 2°31.174 7.5 277 12.7 102130 40
2010-04-28 11:58 51°27.059 2°31.444 7.7 286 12.9 102120 39
2010-04-28 11:59 51°27.252 2°31.705 7.3 284 12.8 102120 37
2010-04-28 12:00 51°27.455 2°31.968 7.6 285 12.8 102120 38
2010-04-28 12:01 51°27.652 2°32.219 7.8 278 12.7 102120 38
2010-04-28 12:02 51°27.855 2°32.482 7.6 280 12.7 102120 39
2010-04-28 12:03 51°28.051 2°32.736 7.2 284 12.7 102120 40
2010-04-28 12:04 51°28.253 2°32.985 7.8 282 12.7 102110 41
2010-04-28 12:05 51°28.473 2°33.206 7.5 279 12.6 102120 38
2010-04-28 12:06 51°28.687 2°33.419 6.9 279 12.5 102120 38
2010-04-28 12:07 51°28.915 2°33.613 7.4 283 12.5 102120 39
2010-04-28 12:08 51°29.136 2°33.795 7.3 286 12.5 102120 39
2010-04-28 12:09 51°29.364 2°33.986 7.2 281 12.5 102120 40
2010-04-28 12:10 51°29.594 2°34.134 6.1 347 12.5 102120 41
2010-04-28 12:11 51°29.838 2°34.215 6.8 346 12.4 102120 38
2010-04-28 12:12 51°30.077 2°34.342 7.1 279 12.4 102110 38
2010-04-28 12:13 51°30.312 2°34.48 7.4 276 12.4 102110 39
2010-04-28 12:14 51°30.55 2°34.609 7 278 12.3 102110 41
2010-04-28 12:15 51°30.795 2°34.686 5.8 279 12.2 102110 38
2010-04-28 12:16 51°31.045 2°34.766 6.2 280 12.2 102110 38
2010-04-28 12:17 51°31.286 2°34.846 5.9 346 12.2 102110 38
2010-04-28 12:18 51°31.534 2°34.93 6.4 279 12.2 102110 41
2010-04-28 12:19 51°31.775 2°35.013 5.8 348 12.2 102110 40
2010-04-28 12:20 51°32.023 2°35.101 6.4 348 12.3 102110 38
2010-04-28 12:21 51°32.265 2°35.185 6.4 282 12.2 102100 38
2010-04-28 12:22 51°32.509 2°35.272 6.2 348 12.3 102100 38
2010-04-28 12:23 51°32.754 2°35.364 6.1 348 12.2 102100 40
2010-04-28 12:24 51°33 2°35.454 6.5 279 12.2 102100 40
2010-04-28 12:25 51°33.249 2°35.543 6.4 348 12.1 102100 38
2010-04-28 12:26 51°33.489 2°35.626 6.4 348 12.1 102100 38
2010-04-28 12:27 51°33.738 2°35.712 6.1 283 12.1 102100 38
2010-04-28 12:28 51°33.977 2°35.813 7.1 348 12.1 102100 40
2010-04-28 12:29 51°34.223 2°35.931 6.4 281 12.1 102100 38
2010-04-28 12:30 51°34.462 2°36.039 6 284 12.1 102100 39
2010-04-28 12:31 51°34.706 2°36.147 6 280 12.2 102100 39
2010-04-28 12:32 51°34.95 2°36.258 6.4 345 12.2 102100 41
2010-04-28 12:33 51°35.196 2°36.372 6.5 280 12.2 102100 40
2010-04-28 12:34 51°35.448 2°36.49 6.9 347 12.2 102100 41
2010-04-28 12:35 51°35.692 2°36.605 6.8 284 12.2 102100 41
2010-04-28 12:36 51°35.946 2°36.721 6.3 284 12.2 102090 41
2010-04-28 12:37 51°36.192 2°36.834 6.6 284 12.2 102090 39
2010-04-28 12:38 51°36.44 2°36.949 7 277 12.2 102100 40
2010-04-28 12:39 51°36.689 2°37.061 7.7 281 12.2 102100 40
2010-04-28 12:40 51°36.939 2°37.169 7.3 282 12.2 102100 39
2010-04-28 12:41 51°37.189 2°37.277 6.9 283 12.2 102090 40
2010-04-28 12:42 51°37.441 2°37.383 7.2 279 12.2 102090 39
2010-04-28 12:43 51°37.696 2°37.491 7.2 284 12.3 102090 42
2010-04-28 12:44 51°37.947 2°37.576 7.4 284 12.4 102090 42
2010-04-28 12:45 51°38.202 2°37.589 5.6 283 12.4 102090 40
2010-04-28 12:46 51°38.423 2°37.44 4.8 283 12.4 102100 42
2010-04-28 12:47 51°38.645 2°37.272 5 277 12.5 102090 37
2010-04-28 12:48 51°38.859 2°37.167 2.6 349 12.5 102090 38
2010-04-28 12:49 51°39.007 2°36.987 2.9 348 12.4 102090 38
2010-04-28 12:50 51°39.148 2°36.801 0.9 335 12.3 102090 40
2010-04-28 12:51 51°39.105 2°36.612 3.2 29 12.3 102100 42
2010-04-28 12:52 51°39.018 2°36.437 3.5 23 12.4 102090 39
2010-04-28 12:53 51°38.895 2°36.287 4.5 27 12.5 102090 39
2010-04-28 12:54 51°38.781 2°36.182 3 26 12.6 102090 40
2010-04-28 12:55 51°38.705 2°36.16 3.8 24 12.7 102090 37
2010-04-28 12:56 51°38.642 2°36.222 3.9 29 12.7 102090 42
2010-04-28 12:57 51°38.6 2°36.302 3.6 22 12.7 102090 38
2010-04-28 12:58 51°38.574 2°36.391 3.5 319 12.7 102090 38
2010-04-28 12:59 51°38.565 2°36.566 6.9 332 12.7 102080 39
2010-04-28 13:00 51°38.644 2°36.89 7.1 342 12.7 102070 41
2010-04-28 13:01 51°38.843 2°36.827 2.6 277 12.7 102080 41
2010-04-28 13:02 51°38.766 2°36.617 6.4 320 12.6 102080 41
2010-04-28 13:03 51°38.674 2°36.869 7.5 335 12.6 102070 38
2010-04-28 13:04 51°38.863 2°36.989 3.8 347 12.6 102070 41
2010-04-28 13:05 51°38.885 2°36.751 3.1 23 12.6 102080 38
2010-04-28 13:06 51°38.783 2°36.719 3.4 24 12.6 102090 42
2010-04-28 13:07 51°38.736 2°36.784 3.3 22 12.6 102080 38
2010-04-28 13:08 51°38.739 2°36.903 4.9 337 12.7 102080 39
2010-04-28 13:09 51°38.875 2°37.077 6.3 345 12.7 102080 41
2010-04-28 13:10 51°39.102 2°37.091 4.8 348 12.6 102070 41
2010-04-28 13:11 51°39.261 2°36.838 3.5 342 12.5 102080 38
2010-04-28 13:12 51°39.285 2°36.527 3.4 318 12.5 102080 42
2010-04-28 13:13 51°39.114 2°36.514 7.4 320 12.5 102070 41
2010-04-28 13:14 51°38.994 2°36.806 7.6 330 12.6 102060 41
2010-04-28 13:15 51°39.127 2°37.078 6.8 345 12.5 102060 40
2010-04-28 13:16 51°39.247 2°36.876 2.6 326 12.4 102080 39
2010-04-28 13:17 51°39.091 2°36.844 7.4 320 12.4 102070 42
2010-04-28 13:18 51°38.909 2°37.048 7.1 323 12.4 102060 40
2010-04-28 13:19 51°38.73 2°37.244 7.8 322 12.4 102060 38
2010-04-28 13:20 51°38.546 2°37.447 7.2 323 12.3 102060 41
2010-04-28 13:21 51°38.381 2°37.685 7.4 321 12.3 102060 41
2010-04-28 13:22 51°38.2 2°37.881 7.6 321 12.2 102060 39
2010-04-28 13:23 51°38.014 2°38.058 7.3 321 12.2 102060 41
2010-04-28 13:24 51°37.838 2°38.266 8 321 12.3 102050 39
2010-04-28 13:25 51°37.652 2°38.444 8 320 12.3 102050 38
2010-04-28 13:26 51°37.464 2°38.603 7.7 320 12.3 102050 41
2010-04-28 13:27 51°37.273 2°38.765 7.4 320 12.4 102050 38
2010-04-28 13:28 51°37.083 2°38.926 8.1 320 12.4 102050 38
2010-04-28 13:29 51°36.888 2°39.092 7.3 320 12.4 102050 40
2010-04-28 13:30 51°36.701 2°39.253 7.6 319 12.4 102050 38
2010-04-28 13:31 51°36.506 2°39.419 7.3 319 12.4 102050 38
2010-04-28 13:32 51°36.321 2°39.592 7.4 319 12.4 102040 38
2010-04-28 13:33 51°36.143 2°39.788 8 319 12.4 102040 39
2010-04-28 13:34 51°35.962 2°39.985 8.1 319 12.3 102040 40
2010-04-28 13:35 51°35.783 2°40.178 7.5 320 12.3 102040 38
2010-04-28 13:36 51°35.597 2°40.382 8 320 12.2 102040 40
2010-04-28 13:37 51°35.415 2°40.579 8 320 12.2 102030 40
2010-04-28 13:38 51°35.228 2°40.78 7.1 321 12.3 102030 39
2010-04-28 13:39 51°35.04 2°40.977 7.6 281 12.4 102030 40
2010-04-28 13:40 51°34.848 2°41.174 7.2 322 12.5 102030 37
2010-04-28 13:41 51°34.659 2°41.351 7.5 283 12.5 102020 37
2010-04-28 13:42 51°34.456 2°41.479 7.5 317 12.5 102020 39
2010-04-28 13:43 51°34.256 2°41.604 7.2 319 12.5 102020 37
2010-04-28 13:44 51°34.062 2°41.727 7.4 319 12.6 102020 40
2010-04-28 13:45 51°33.866 2°41.852 7.4 319 12.7 102020 38
2010-04-28 13:46 51°33.669 2°41.974 7.5 319 12.8 102020 38
2010-04-28 13:47 51°33.469 2°42.101 6.6 320 12.9 102020 40
2010-04-28 13:48 51°33.276 2°42.219 8 23 13 102020 39
2010-04-28 13:49 51°33.08 2°42.344 8.3 315 13 102010 38
2010-04-28 13:50 51°32.881 2°42.472 8.3 315 12.8 102010 38
2010-04-28 13:51 51°32.689 2°42.594 7.8 22 12.7 102000 36
2010-04-28 13:52 51°32.489 2°42.715 8.3 26 12.6 102000 37
2010-04-28 13:53 51°32.294 2°42.83 7.7 22 12.5 102000 40
2010-04-28 13:54 51°32.092 2°42.949 7.9 26 12.4 102000 39
2010-04-28 13:55 51°31.895 2°43.065 7.1 26 12.3 102000 38
2010-04-28 13:56 51°31.695 2°43.187 7.5 22 12.2 101990 38
2010-04-28 13:57 51°31.493 2°43.31 8.2 20 12.2 101990 39
2010-04-28 13:58 51°31.292 2°43.434 8 28 12.3 101990 38
2010-04-28 13:59 51°31.088 2°43.559 7.9 24 12.3 101990 36
2010-04-28 14:00 51°30.891 2°43.679 8.1 22 12.3 101980 39
2010-04-28 14:01 51°30.686 2°43.803 7.5 25 12.4 101980 38
2010-04-28 14:02 51°30.49 2°43.925 7.7 26 12.4 101970 37
2010-04-28 14:03 51°30.285 2°44.04 7.7 24 12.4 101970 39
2010-04-28 14:04 51°30.085 2°44.153 8.6 315 12.4 101970 39
2010-04-28 14:05 51°29.883 2°44.268 7.9 27 12.3 101970 39
2010-04-28 14:06 51°29.676 2°44.384 7.5 27 12.4 101980 38
2010-04-28 14:07 51°29.478 2°44.499 8.4 25 12.4 101980 39
2010-04-28 14:08 51°29.274 2°44.622 7.6 29 12.4 101970 40
2010-04-28 14:09 51°29.076 2°44.741 8.4 28 12.5 101970 40
2010-04-28 14:10 51°28.872 2°44.865 7.5 22 12.6 101970 40
2010-04-28 14:11 51°28.675 2°44.989 8.1 23 12.6 101970 39
2010-04-28 14:12 51°28.469 2°45.115 7.4 22 12.6 101970 40
2010-04-28 14:13 51°28.267 2°45.233 8.3 28 12.7 101960 39
2010-04-28 14:14 51°28.059 2°45.35 8.3 19 12.7 101970 39
2010-04-28 14:15 51°27.851 2°45.464 7.7 20 12.7 101970 36
2010-04-28 14:16 51°27.643 2°45.578 8.3 19 12.6 101960 39
2010-04-28 14:17 51°27.432 2°45.695 8.3 25 12.6 101960 40
2010-04-28 14:18 51°27.228 2°45.806 8.3 20 12.6 101960 37
2010-04-28 14:19 51°27.019 2°45.921 8.1 19 12.6 101960 37
2010-04-28 14:20 51°26.817 2°46.032 7.6 21 12.5 101960 40
2010-04-28 14:21 51°26.611 2°46.149 7.6 26 12.5 101960 40
2010-04-28 14:22 51°26.403 2°46.258 8 23 12.5 101960 39
2010-04-28 14:23 51°26.195 2°46.368 8.4 21 12.4 101960 36
2010-04-28 14:24 51°25.988 2°46.481 8.2 23 12.4 101950 39
2010-04-28 14:25 51°25.781 2°46.593 7.3 20 12.3 101950 38
2010-04-28 14:26 51°25.571 2°46.707 8.5 22 12.3 101950 40
2010-04-28 14:27 51°25.368 2°46.816 8.2 27 12.3 101950 37
2010-04-28 14:28 51°25.156 2°46.928 7.4 23 12.2 101950 40
2010-04-28 14:29 51°24.952 2°47.037 6.4 316 12.2 101950 37
2010-04-28 14:30 51°24.744 2°47.147 7 317 12.2 101950 38
2010-04-28 14:31 51°24.537 2°47.257 7.8 23 12.2 101950 36
2010-04-28 14:32 51°24.332 2°47.375 7.8 27 12.2 101940 40
2010-04-28 14:33 51°24.139 2°47.54 8.3 26 12.2 101940 39
2010-04-28 14:34 51°23.946 2°47.714 7.1 26 12.3 101930 39
2010-04-28 14:35 51°23.751 2°47.889 8.1 20 12.4 101940 38
2010-04-28 14:36 51°23.557 2°48.062 8.1 21 12.4 101930 40
2010-04-28 14:37 51°23.358 2°48.236 7.8 28 12.5 101940 37
2010-04-28 14:38 51°23.165 2°48.404 8.5 22 12.6 101930 38
2010-04-28 14:39 51°22.97 2°48.576 8.2 19 12.6 101930 39
2010-04-28 14:40 51°22.776 2°48.749 8.2 20 12.7 101930 37
2010-04-28 14:41 51°22.58 2°48.915 7.9 24 12.8 101930 39
2010-04-28 14:42 51°22.38 2°49.07 8.1 22 12.9 101930 38
2010-04-28 14:43 51°22.177 2°49.224 8.3 25 13 101930 39
2010-04-28 14:44 51°21.974 2°49.377 7 315 13.1 101930 40
2010-04-28 14:45 51°21.769 2°49.523 7.2 24 13.1 101930 37
2010-04-28 14:46 51°21.559 2°49.665 7.3 20 13.2 101930 37
2010-04-28 14:47 51°21.356 2°49.807 8.5 22 13.2 101920 36
2010-04-28 14:48 51°21.148 2°49.953 7.7 26 13.3 101920 39
2010-04-28 14:49 51°20.948 2°50.09 7.9 278 13.3 101920 37
2010-04-28 14:50 51°20.739 2°50.208 7.4 280 13.3 101920 40
2010-04-28 14:51 51°20.532 2°50.32 8 284 13.3 101910 39
2010-04-28 14:52 51°20.327 2°50.444 7.1 278 13.4 101910 39
2010-04-28 14:53 51°20.12 2°50.563 7.2 285 13.5 101910 39
2010-04-28 14:54 51°19.911 2°50.681 8.1 285 13.6 101900 37
2010-04-28 14:55 51°19.698 2°50.801 7.6 279 13.7 101910 36
2010-04-28 14:56 51°19.491 2°50.919 7.9 280 14 101900 37
2010-04-28 14:57 51°19.277 2°51.041 6.6 286 14.2 101900 37
2010-04-28 14:58 51°19.071 2°51.159 6.6 280 14.3 101900 39
2010-04-28 14:59 51°18.86 2°51.282 7 279 14.4 101900 37
2010-04-28 15:00 51°18.65 2°51.403 7.3 286 14.4 101910 38
2010-04-28 15:01 51°18.44 2°51.524 8.1 279 14.2 101910 40
2010-04-28 15:02 51°18.231 2°51.644 7 282 14 101900 39
2010-04-28 15:03 51°18.022 2°51.764 7.7 283 13.9 101900 38
2010-04-28 15:04 51°17.813 2°51.899 7.1 278 13.9 101910 38
2010-04-28 15:05 51°17.614 2°52.05 6.5 281 13.9 101900 38
2010-04-28 15:06 51°17.409 2°52.206 6.7 278 14 101900 40
2010-04-28 15:07 51°17.212 2°52.366 6.7 286 14 101910 37
2010-04-28 15:08 51°17.014 2°52.532 6.6 278 13.9 101910 39
2010-04-28 15:09 51°16.818 2°52.702 6.1 280 14 101900 40
2010-04-28 15:10 51°16.619 2°52.866 5.1 278 14.4 101900 40
2010-04-28 15:11 51°16.417 2°53.022 6.2 278 14.9 101900 36
2010-04-28 15:12 51°16.264 2°53.141 7.5 280 15.3 101890 37
2010-04-28 15:13 51°16.161 2°53.229 8 279 16.1 101880 36
2010-04-28 15:14 51°16.058 2°53.311 9 278 17.4 101850 33
2010-04-28 15:15 51°15.943 2°53.394 9.1 279 18.5 101850 30
2010-04-28 15:16 51°15.833 2°53.482 9.1 345 19.3 101850 31
2010-04-28 15:17 51°15.722 2°53.58 8.9 279 19.8 101850 31
2010-04-28 15:18 51°15.612 2°53.688 8.8 349 20 101860 31
2010-04-28 15:19 51°15.511 2°53.785 8.5 350 20 101860 29
2010-04-28 15:20 51°15.423 2°53.884 8.2 355 20.1 101870 31
2010-04-28 15:21 51°15.336 2°53.981 7 348 19.7 101860 32
2010-04-28 15:22 51°15.223 2°54.112 9.1 283 19.8 101860 31
2010-04-28 15:23 51°15.081 2°54.296 9.2 349 20.1 101840 30
2010-04-28 15:24 51°14.927 2°54.514 10 281 20.3 101850 30
2010-04-28 15:25 51°14.769 2°54.723 9.6 279 20.5 101850 31
2010-04-28 15:26 51°14.603 2°54.919 9.8 349 20.7 101840 31
2010-04-28 15:27 51°14.437 2°55.096 7.7 354 21 101840 29
2010-04-28 15:28 51°14.33 2°55.22 6.4 358 21.3 101870 28
2010-04-28 15:29 51°14.241 2°55.317 8 277 21.6 101870 30
2010-04-28 15:30 51°14.151 2°55.397 5.8 285 21.9 101850 29
2010-04-28 15:31 51°14.05 2°55.473 6.9 278 22.1 101860 28
2010-04-28 15:32 51°13.947 2°55.546 6.2 284 22.2 101870 28
2010-04-28 15:33 51°13.847 2°55.622 6 284 22.3 101870 28
2010-04-28 15:34 51°13.763 2°55.704 4.6 285 22.5 101860 29
2010-04-28 15:35 51°13.714 2°55.793 3.1 3 22.5 101860 28
2010-04-28 15:36 51°13.68 2°55.884 4.2 8 22.5 101870 29
2010-04-28 15:37 51°13.663 2°55.956 2.2 353 22.5 101870 28